sensor_id;sensor_type;location;lat;lon;timestamp;temperature;humidity
67817;DHT22;54614;47.576;7.524;2023-10-09T03:47:34;25.70;56.50
67817;DHT22;54614;47.576;7.524;2023-10-09T03:50:00;25.70;57.10
67817;DHT22;54614;47.576;7.524;2023-10-09T03:52:31;25.70;57.10
67817;DHT22;54614;47.576;7.524;2023-10-09T03:54:57;25.70;57.10
67817;DHT22;54614;47.576;7.524;2023-10-09T03:57:23;25.70;57.30
67817;DHT22;54614;47.576;7.524;2023-10-09T03:59:50;25.70;57.10
67817;DHT22;54614;47.576;7.524;2023-10-09T04:02:17;25.70;57.10
67817;DHT22;54614;47.576;7.524;2023-10-09T04:04:43;25.70;57.10
67817;DHT22;54614;47.576;7.524;2023-10-09T04:07:13;25.70;57.10
67817;DHT22;54614;47.576;7.524;2023-10-09T04:09:42;25.70;57.00
67817;DHT22;54614;47.576;7.524;2023-10-09T04:12:10;25.70;56.90
67817;DHT22;54614;47.576;7.524;2023-10-09T04:14:40;25.70;57.00
67817;DHT22;54614;47.576;7.524;2023-10-09T04:17:15;25.70;56.80
67817;DHT22;54614;47.576;7.524;2023-10-09T04:19:48;25.70;56.60
67817;DHT22;54614;47.576;7.524;2023-10-09T04:22:17;25.70;56.50
67817;DHT22;54614;47.576;7.524;2023-10-09T04:24:52;25.70;56.50
67817;DHT22;54614;47.576;7.524;2023-10-09T04:27:18;25.70;56.60
67817;DHT22;54614;47.576;7.524;2023-10-09T04:29:52;25.60;56.70
67817;DHT22;54614;47.576;7.524;2023-10-09T04:32:19;25.60;56.90
67817;DHT22;54614;47.576;7.524;2023-10-09T04:34:50;25.50;56.70
67817;DHT22;54614;47.576;7.524;2023-10-09T04:37:42;25.50;56.90
67817;DHT22;54614;47.576;7.524;2023-10-09T04:40:10;25.50;56.80
67817;DHT22;54614;47.576;7.524;2023-10-09T04:42:37;25.50;56.90
67817;DHT22;54614;47.576;7.524;2023-10-09T04:45:07;25.50;56.90
67817;DHT22;54614;47.576;7.524;2023-10-09T04:47:36;25.50;56.90
67817;DHT22;54614;47.576;7.524;2023-10-09T04:50:03;25.50;57.20
67817;DHT22;54614;47.576;7.524;2023-10-09T04:52:33;25.50;57.50
67817;DHT22;54614;47.576;7.524;2023-10-09T04:55:00;25.50;57.70
67817;DHT22;54614;47.576;7.524;2023-10-09T04:57:42;25.50;58.20
67817;DHT22;54614;47.576;7.524;2023-10-09T05:00:18;25.50;58.50
67817;DHT22;54614;47.576;7.524;2023-10-09T05:02:53;25.50;58.80
67817;DHT22;54614;47.576;7.524;2023-10-09T05:05:25;25.50;58.80
67817;DHT22;54614;47.576;7.524;2023-10-09T05:10:51;25.50;58.70
67817;DHT22;54614;47.576;7.524;2023-10-09T05:13:34;25.50;59.00
67817;DHT22;54614;47.576;7.524;2023-10-09T05:16:15;25.50;59.00
67817;DHT22;54614;47.576;7.524;2023-10-09T05:18:51;25.50;58.80
67817;DHT22;54614;47.576;7.524;2023-10-09T05:21:50;25.50;58.50
67817;DHT22;54614;47.576;7.524;2023-10-09T05:24:18;25.50;57.80
67817;DHT22;54614;47.576;7.524;2023-10-09T05:26:51;25.60;58.40
67817;DHT22;54614;47.576;7.524;2023-10-09T05:32:00;25.60;57.60
67817;DHT22;54614;47.576;7.524;2023-10-09T05:34:43;25.60;57.80
67817;DHT22;54614;47.576;7.524;2023-10-09T05:37:30;25.60;57.80
67817;DHT22;54614;47.576;7.524;2023-10-09T05:40:00;25.50;57.90
67817;DHT22;54614;47.576;7.524;2023-10-09T05:42:42;25.60;57.80
67817;DHT22;54614;47.576;7.524;2023-10-09T05:45:10;25.60;57.90
67817;DHT22;54614;47.576;7.524;2023-10-09T05:47:49;25.60;58.50
67817;DHT22;54614;47.576;7.524;2023-10-09T05:52:50;25.20;56.50
67817;DHT22;54614;47.576;7.524;2023-10-09T05:55:16;24.80;54.50
67817;DHT22;54614;47.576;7.524;2023-10-09T05:58:01;24.40;54.60
67817;DHT22;54614;47.576;7.524;2023-10-09T06:00:45;24.20;60.10
67817;DHT22;54614;47.576;7.524;2023-10-09T06:03:30;24.10;60.40
67817;DHT22;54614;47.576;7.524;2023-10-09T06:09:05;23.60;91.20
67817;DHT22;54614;47.576;7.524;2023-10-09T06:11:45;23.70;83.50
67817;DHT22;54614;47.576;7.524;2023-10-09T06:14:15;23.50;82.10
67817;DHT22;54614;47.576;7.524;2023-10-09T06:16:51;23.40;88.30
67817;DHT22;54614;47.576;7.524;2023-10-09T06:24:48;22.90;63.00
67817;DHT22;54614;47.576;7.524;2023-10-09T06:27:21;22.80;64.60
67817;DHT22;54614;47.576;7.524;2023-10-09T06:29:57;22.70;64.90
67817;DHT22;54614;47.576;7.524;2023-10-09T06:32:42;22.70;65.10
67817;DHT22;54614;47.576;7.524;2023-10-09T06:35:20;22.60;65.00
67817;DHT22;54614;47.576;7.524;2023-10-09T06:37:57;22.50;65.80
67817;DHT22;54614;47.576;7.524;2023-10-09T06:40:30;22.50;65.90
67817;DHT22;54614;47.576;7.524;2023-10-09T06:43:19;22.50;66.10
67817;DHT22;54614;47.576;7.524;2023-10-09T06:45:53;22.40;66.30
67817;DHT22;54614;47.576;7.524;2023-10-09T06:48:29;22.30;69.80
67817;DHT22;54614;47.576;7.524;2023-10-09T06:51:07;22.20;80.10
67817;DHT22;54614;47.576;7.524;2023-10-09T06:53:56;22.10;80.60
67817;DHT22;54614;47.576;7.524;2023-10-09T06:56:30;22.10;81.20
67817;DHT22;54614;47.576;7.524;2023-10-09T06:58:56;22.10;82.40
67817;DHT22;54614;47.576;7.524;2023-10-09T07:01:33;22.10;83.50
67817;DHT22;54614;47.576;7.524;2023-10-09T07:04:12;22.00;86.50
67817;DHT22;54614;47.576;7.524;2023-10-09T07:06:48;22.00;86.60
67817;DHT22;54614;47.576;7.524;2023-10-09T07:09:16;22.00;87.30
67817;DHT22;54614;47.576;7.524;2023-10-09T07:33:37;22.20;63.60
67817;DHT22;54614;47.576;7.524;2023-10-09T07:36:29;23.00;63.30
67817;DHT22;54614;47.576;7.524;2023-10-09T07:39:00;23.00;63.70
67817;DHT22;54614;47.576;7.524;2023-10-09T07:41:30;23.00;63.90
67817;DHT22;54614;47.576;7.524;2023-10-09T07:43:57;23.00;64.00
67817;DHT22;54614;47.576;7.524;2023-10-09T07:46:23;23.10;64.00
67817;DHT22;54614;47.576;7.524;2023-10-09T07:49:05;23.20;64.20
67817;DHT22;54614;47.576;7.524;2023-10-09T07:51:50;23.10;64.10
67817;DHT22;54614;47.576;7.524;2023-10-09T07:54:18;23.10;64.20
67817;DHT22;54614;47.576;7.524;2023-10-09T07:56:58;23.00;64.10
67817;DHT22;54614;47.576;7.524;2023-10-09T07:59:35;23.00;64.10
67817;DHT22;54614;47.576;7.524;2023-10-09T08:02:07;23.00;64.00
67817;DHT22;54614;47.576;7.524;2023-10-09T08:04:39;23.10;64.20
67817;DHT22;54614;47.576;7.524;2023-10-09T08:07:15;23.10;64.00
67817;DHT22;54614;47.576;7.524;2023-10-09T08:09:45;23.10;64.10
67817;DHT22;54614;47.576;7.524;2023-10-09T08:12:17;23.10;64.20
67817;DHT22;54614;47.576;7.524;2023-10-09T08:15:06;23.00;64.30
67817;DHT22;54614;47.576;7.524;2023-10-09T08:17:58;23.00;64.30
67817;DHT22;54614;47.576;7.524;2023-10-09T08:20:44;23.10;64.20
67817;DHT22;54614;47.576;7.524;2023-10-09T08:23:28;23.10;64.50
67817;DHT22;54614;47.576;7.524;2023-10-09T08:26:14;23.10;64.60
67817;DHT22;54614;47.576;7.524;2023-10-09T08:28:55;23.10;64.50
67817;DHT22;54614;47.576;7.524;2023-10-09T08:31:42;23.10;64.50
67817;DHT22;54614;47.576;7.524;2023-10-09T08:34:14;23.20;64.60
67817;DHT22;54614;47.576;7.524;2023-10-09T08:36:50;23.20;64.60
67817;DHT22;54614;47.576;7.524;2023-10-09T08:39:20;23.30;64.50
67817;DHT22;54614;47.576;7.524;2023-10-09T08:41:55;23.40;64.60
67817;DHT22;54614;47.576;7.524;2023-10-09T08:44:25;23.40;64.60
67817;DHT22;54614;47.576;7.524;2023-10-09T08:46:57;23.40;64.60
67817;DHT22;54614;47.576;7.524;2023-10-09T08:49:26;23.30;64.60
67817;DHT22;54614;47.576;7.524;2023-10-09T08:51:53;23.40;64.60
67817;DHT22;54614;47.576;7.524;2023-10-09T08:54:21;23.40;64.50
67817;DHT22;54614;47.576;7.524;2023-10-09T08:56:47;23.40;64.60
67817;DHT22;54614;47.576;7.524;2023-10-09T08:59:16;23.50;64.60
67817;DHT22;54614;47.576;7.524;2023-10-09T09:01:45;23.50;64.90
67817;DHT22;54614;47.576;7.524;2023-10-09T09:04:42;23.50;64.90
67817;DHT22;54614;47.576;7.524;2023-10-09T09:07:29;23.60;65.70
67817;DHT22;54614;47.576;7.524;2023-10-09T09:09:59;23.70;65.60
67817;DHT22;54614;47.576;7.524;2023-10-09T09:12:47;23.80;65.70
67817;DHT22;54614;47.576;7.524;2023-10-09T09:15:27;23.80;65.80
67817;DHT22;54614;47.576;7.524;2023-10-09T09:18:06;23.80;65.80
67817;DHT22;54614;47.576;7.524;2023-10-09T09:20:36;23.80;65.90
67817;DHT22;54614;47.576;7.524;2023-10-09T09:23:09;23.80;65.90
67817;DHT22;54614;47.576;7.524;2023-10-09T09:25:44;23.90;66.00
67817;DHT22;54614;47.576;7.524;2023-10-09T09:28:14;23.90;66.10
67817;DHT22;54614;47.576;7.524;2023-10-09T09:30:47;24.00;66.30
67817;DHT22;54614;47.576;7.524;2023-10-09T09:33:23;24.00;66.40
67817;DHT22;54614;47.576;7.524;2023-10-09T09:36:06;24.00;66.20
67817;DHT22;54614;47.576;7.524;2023-10-09T09:38:34;24.00;66.10
67817;DHT22;54614;47.576;7.524;2023-10-09T09:41:17;24.10;66.30
67817;DHT22;54614;47.576;7.524;2023-10-09T09:43:56;24.10;66.20
67817;DHT22;54614;47.576;7.524;2023-10-09T09:46:27;24.10;66.20
67817;DHT22;54614;47.576;7.524;2023-10-09T09:49:06;24.10;66.20
67817;DHT22;54614;47.576;7.524;2023-10-09T09:51:42;24.10;66.40
67817;DHT22;54614;47.576;7.524;2023-10-09T09:54:15;24.10;66.40
67817;DHT22;54614;47.576;7.524;2023-10-09T09:56:44;24.10;66.30
67817;DHT22;54614;47.576;7.524;2023-10-09T09:59:18;24.20;66.60
67817;DHT22;54614;47.576;7.524;2023-10-09T10:01:49;24.10;66.50
67817;DHT22;54614;47.576;7.524;2023-10-09T10:04:26;24.20;66.70
67817;DHT22;54614;47.576;7.524;2023-10-09T10:07:00;24.20;66.70
67817;DHT22;54614;47.576;7.524;2023-10-09T10:09:39;24.20;66.60
67817;DHT22;54614;47.576;7.524;2023-10-09T10:12:09;24.30;66.50
67817;DHT22;54614;47.576;7.524;2023-10-09T10:17:19;24.30;66.60
67817;DHT22;54614;47.576;7.524;2023-10-09T10:22:30;24.30;68.00
67817;DHT22;54614;47.576;7.524;2023-10-09T10:24:56;24.40;68.10
67817;DHT22;54614;47.576;7.524;2023-10-09T10:27:34;24.40;68.10
67817;DHT22;54614;47.576;7.524;2023-10-09T10:30:27;24.40;68.30
67817;DHT22;54614;47.576;7.524;2023-10-09T10:33:00;24.40;68.30
67817;DHT22;54614;47.576;7.524;2023-10-09T10:35:37;24.40;68.30
67817;DHT22;54614;47.576;7.524;2023-10-09T10:38:31;24.40;68.30
67817;DHT22;54614;47.576;7.524;2023-10-09T10:41:12;24.40;69.30
67817;DHT22;54614;47.576;7.524;2023-10-09T10:43:43;24.40;69.20
67817;DHT22;54614;47.576;7.524;2023-10-09T10:46:14;24.40;69.10
67817;DHT22;54614;47.576;7.524;2023-10-09T10:48:59;24.40;69.00
67817;DHT22;54614;47.576;7.524;2023-10-09T10:51:40;24.40;69.20
67817;DHT22;54614;47.576;7.524;2023-10-09T10:54:08;24.40;69.30
67817;DHT22;54614;47.576;7.524;2023-10-09T10:57:19;24.40;69.10
67817;DHT22;54614;47.576;7.524;2023-10-09T10:59:55;24.40;69.00
67817;DHT22;54614;47.576;7.524;2023-10-09T11:02:30;24.50;69.00
67817;DHT22;54614;47.576;7.524;2023-10-09T11:04:56;24.50;69.00
67817;DHT22;54614;47.576;7.524;2023-10-09T11:07:40;24.50;68.90
67817;DHT22;54614;47.576;7.524;2023-10-09T11:10:06;24.50;69.00
67817;DHT22;54614;47.576;7.524;2023-10-09T11:15:34;24.50;68.80
67817;DHT22;54614;47.576;7.524;2023-10-09T11:18:23;24.50;69.00
67817;DHT22;54614;47.576;7.524;2023-10-09T11:20:54;24.50;69.10
67817;DHT22;54614;47.576;7.524;2023-10-09T11:23:24;24.50;69.10
67817;DHT22;54614;47.576;7.524;2023-10-09T11:26:01;24.50;69.10
67817;DHT22;54614;47.576;7.524;2023-10-09T11:28:46;24.40;69.00
67817;DHT22;54614;47.576;7.524;2023-10-09T11:31:42;24.60;69.20
67817;DHT22;54614;47.576;7.524;2023-10-09T11:34:23;24.60;69.80
67817;DHT22;54614;47.576;7.524;2023-10-09T11:37:03;24.70;69.50
67817;DHT22;54614;47.576;7.524;2023-10-09T11:39:41;24.70;69.40
67817;DHT22;54614;47.576;7.524;2023-10-09T11:42:19;24.70;69.40
67817;DHT22;54614;47.576;7.524;2023-10-09T11:45:07;24.70;69.30
67817;DHT22;54614;47.576;7.524;2023-10-09T11:47:55;24.70;69.20
67817;DHT22;54614;47.576;7.524;2023-10-09T11:53:40;24.70;69.10
67817;DHT22;54614;47.576;7.524;2023-10-09T11:56:21;24.70;69.30
67817;DHT22;54614;47.576;7.524;2023-10-09T11:58:48;24.70;69.60
67817;DHT22;54614;47.576;7.524;2023-10-09T12:01:20;24.80;68.70
67817;DHT22;54614;47.576;7.524;2023-10-09T12:03:47;24.80;69.40
67817;DHT22;54614;47.576;7.524;2023-10-09T12:06:18;24.90;70.50
67817;DHT22;54614;47.576;7.524;2023-10-09T12:08:47;24.90;70.30
67817;DHT22;54614;47.576;7.524;2023-10-09T12:11:15;25.00;70.20
67817;DHT22;54614;47.576;7.524;2023-10-09T12:13:51;25.00;70.20
67817;DHT22;54614;47.576;7.524;2023-10-09T12:16:22;25.00;70.10
67817;DHT22;54614;47.576;7.524;2023-10-09T12:18:56;25.00;70.20
67817;DHT22;54614;47.576;7.524;2023-10-09T12:21:23;25.00;70.20
67817;DHT22;54614;47.576;7.524;2023-10-09T12:23:49;25.00;70.10
67817;DHT22;54614;47.576;7.524;2023-10-09T12:26:15;25.10;70.20
67817;DHT22;54614;47.576;7.524;2023-10-09T12:28:41;25.10;70.10
67817;DHT22;54614;47.576;7.524;2023-10-09T12:31:14;25.20;70.30
67817;DHT22;54614;47.576;7.524;2023-10-09T12:33:42;25.10;70.20
67817;DHT22;54614;47.576;7.524;2023-10-09T12:36:14;25.20;70.90
67817;DHT22;54614;47.576;7.524;2023-10-09T12:38:47;25.10;70.20
67817;DHT22;54614;47.576;7.524;2023-10-09T12:41:19;25.10;70.40
67817;DHT22;54614;47.576;7.524;2023-10-09T12:43:51;25.10;71.20
67817;DHT22;54614;47.576;7.524;2023-10-09T12:46:18;25.20;71.10
67817;DHT22;54614;47.576;7.524;2023-10-09T12:48:51;25.20;71.00
67817;DHT22;54614;47.576;7.524;2023-10-09T12:51:20;25.20;71.10
67817;DHT22;54614;47.576;7.524;2023-10-09T12:53:51;25.20;71.10
67817;DHT22;54614;47.576;7.524;2023-10-09T12:56:22;25.10;71.10
67817;DHT22;54614;47.576;7.524;2023-10-09T12:59:00;25.10;71.10
67817;DHT22;54614;47.576;7.524;2023-10-09T13:01:27;25.10;71.10
67817;DHT22;54614;47.576;7.524;2023-10-09T13:04:11;25.10;71.20
67817;DHT22;54614;47.576;7.524;2023-10-09T13:06:39;25.10;71.20
67817;DHT22;54614;47.576;7.524;2023-10-09T13:09:16;25.20;71.30
67817;DHT22;54614;47.576;7.524;2023-10-09T13:12:01;25.20;71.40
67817;DHT22;54614;47.576;7.524;2023-10-09T13:14:27;25.10;71.30
67817;DHT22;54614;47.576;7.524;2023-10-09T13:16:54;25.10;71.40
67817;DHT22;54614;47.576;7.524;2023-10-09T13:19:20;25.10;71.40
67817;DHT22;54614;47.576;7.524;2023-10-09T13:21:49;25.10;71.30
67817;DHT22;54614;47.576;7.524;2023-10-09T13:24:15;25.10;71.60
67817;DHT22;54614;47.576;7.524;2023-10-09T13:26:45;25.10;72.30
67817;DHT22;54614;47.576;7.524;2023-10-09T13:29:12;25.00;71.70
67817;DHT22;54614;47.576;7.524;2023-10-09T13:31:39;25.00;71.90
67817;DHT22;54614;47.576;7.524;2023-10-09T13:34:13;24.90;72.00
67817;DHT22;54614;47.576;7.524;2023-10-09T13:36:42;24.90;71.90
67817;DHT22;54614;47.576;7.524;2023-10-09T13:39:18;24.90;71.90
67817;DHT22;54614;47.576;7.524;2023-10-09T13:41:52;24.90;72.00
67817;DHT22;54614;47.576;7.524;2023-10-09T13:44:29;24.90;72.00
67817;DHT22;54614;47.576;7.524;2023-10-09T13:46:58;24.90;71.90
67817;DHT22;54614;47.576;7.524;2023-10-09T13:49:47;24.90;72.00
67817;DHT22;54614;47.576;7.524;2023-10-09T13:52:17;24.90;72.10
67817;DHT22;54614;47.576;7.524;2023-10-09T13:54:44;24.90;72.10
67817;DHT22;54614;47.576;7.524;2023-10-09T13:57:14;24.90;72.10
67817;DHT22;54614;47.576;7.524;2023-10-09T13:59:41;24.90;72.20
67817;DHT22;54614;47.576;7.524;2023-10-09T14:02:17;24.90;72.30
67817;DHT22;54614;47.576;7.524;2023-10-09T14:04:47;25.00;72.10
67817;DHT22;54614;47.576;7.524;2023-10-09T14:07:13;25.00;71.80
67817;DHT22;54614;47.576;7.524;2023-10-09T14:09:43;25.00;71.80
67817;DHT22;54614;47.576;7.524;2023-10-09T14:12:09;25.00;72.20
67817;DHT22;54614;47.576;7.524;2023-10-09T14:14:37;25.00;71.70
67817;DHT22;54614;47.576;7.524;2023-10-09T14:17:09;25.00;71.70
67817;DHT22;54614;47.576;7.524;2023-10-09T14:19:39;25.00;71.60
67817;DHT22;54614;47.576;7.524;2023-10-09T14:22:16;25.00;71.60
67817;DHT22;54614;47.576;7.524;2023-10-09T14:24:46;25.00;71.70
67817;DHT22;54614;47.576;7.524;2023-10-09T14:27:16;25.00;71.80
67817;DHT22;54614;47.576;7.524;2023-10-09T14:29:48;25.00;71.80
67817;DHT22;54614;47.576;7.524;2023-10-09T14:32:15;25.00;71.80
67817;DHT22;54614;47.576;7.524;2023-10-09T14:34:42;25.10;71.80
67817;DHT22;54614;47.576;7.524;2023-10-09T14:37:15;25.00;71.80
67817;DHT22;54614;47.576;7.524;2023-10-09T14:39:42;25.00;71.80
67817;DHT22;54614;47.576;7.524;2023-10-09T14:42:08;25.10;72.00
67817;DHT22;54614;47.576;7.524;2023-10-09T14:44:37;25.10;71.90
67817;DHT22;54614;47.576;7.524;2023-10-09T14:47:04;25.10;72.00
67817;DHT22;54614;47.576;7.524;2023-10-09T14:49:36;25.10;71.90
67817;DHT22;54614;47.576;7.524;2023-10-09T14:52:09;25.10;72.20
67817;DHT22;54614;47.576;7.524;2023-10-09T14:54:36;25.10;72.20
67817;DHT22;54614;47.576;7.524;2023-10-09T14:57:03;25.10;72.60
67817;DHT22;54614;47.576;7.524;2023-10-09T14:59:33;25.20;72.30
67817;DHT22;54614;47.576;7.524;2023-10-09T15:01:59;25.10;72.00
67817;DHT22;54614;47.576;7.524;2023-10-09T15:04:25;25.10;72.00
67817;DHT22;54614;47.576;7.524;2023-10-09T15:06:52;25.10;72.10
67817;DHT22;54614;47.576;7.524;2023-10-09T15:09:18;25.20;72.20
67817;DHT22;54614;47.576;7.524;2023-10-09T15:11:50;25.10;72.10
67817;DHT22;54614;47.576;7.524;2023-10-09T15:14:17;25.10;72.10
67817;DHT22;54614;47.576;7.524;2023-10-09T15:16:47;25.10;72.40
67817;DHT22;54614;47.576;7.524;2023-10-09T15:19:14;25.20;72.60
67817;DHT22;54614;47.576;7.524;2023-10-09T15:21:42;25.20;72.80
67817;DHT22;54614;47.576;7.524;2023-10-09T15:24:15;25.20;72.80
67817;DHT22;54614;47.576;7.524;2023-10-09T15:26:48;25.20;72.70
67817;DHT22;54614;47.576;7.524;2023-10-09T15:29:20;25.20;72.70
67817;DHT22;54614;47.576;7.524;2023-10-09T15:31:51;25.20;72.70
67817;DHT22;54614;47.576;7.524;2023-10-09T15:34:17;25.20;72.70
67817;DHT22;54614;47.576;7.524;2023-10-09T15:36:46;25.10;72.50
67817;DHT22;54614;47.576;7.524;2023-10-09T15:39:15;25.20;72.70
67817;DHT22;54614;47.576;7.524;2023-10-09T15:41:46;25.10;72.50
67817;DHT22;54614;47.576;7.524;2023-10-09T15:44:12;25.10;72.70
67817;DHT22;54614;47.576;7.524;2023-10-09T15:46:41;25.20;72.80
67817;DHT22;54614;47.576;7.524;2023-10-09T15:49:11;25.00;73.20
67817;DHT22;54614;47.576;7.524;2023-10-09T15:51:39;25.00;73.20
67817;DHT22;54614;47.576;7.524;2023-10-09T15:54:05;25.10;73.20
67817;DHT22;54614;47.576;7.524;2023-10-09T15:56:31;25.10;73.10
67817;DHT22;54614;47.576;7.524;2023-10-09T15:58:57;25.20;73.00
67817;DHT22;54614;47.576;7.524;2023-10-09T16:01:23;25.10;73.20
67817;DHT22;54614;47.576;7.524;2023-10-09T16:03:49;25.10;73.00
67817;DHT22;54614;47.576;7.524;2023-10-09T16:06:19;25.10;72.80
67817;DHT22;54614;47.576;7.524;2023-10-09T16:08:48;25.10;72.80
67817;DHT22;54614;47.576;7.524;2023-10-09T16:11:19;25.10;72.60
67817;DHT22;54614;47.576;7.524;2023-10-09T16:13:53;25.20;72.60
67817;DHT22;54614;47.576;7.524;2023-10-09T16:16:29;25.10;72.40
67817;DHT22;54614;47.576;7.524;2023-10-09T16:18:56;25.10;72.30
67817;DHT22;54614;47.576;7.524;2023-10-09T16:21:26;25.20;72.30
67817;DHT22;54614;47.576;7.524;2023-10-09T16:23:53;25.20;72.30
67817;DHT22;54614;47.576;7.524;2023-10-09T16:26:24;25.10;72.10
67817;DHT22;54614;47.576;7.524;2023-10-09T16:28:50;25.10;72.30
67817;DHT22;54614;47.576;7.524;2023-10-09T16:31:19;25.10;72.30
67817;DHT22;54614;47.576;7.524;2023-10-09T16:33:46;25.10;72.50
67817;DHT22;54614;47.576;7.524;2023-10-09T16:36:13;25.10;72.50
67817;DHT22;54614;47.576;7.524;2023-10-09T16:38:42;25.10;72.50
67817;DHT22;54614;47.576;7.524;2023-10-09T16:41:09;25.10;72.60
67817;DHT22;54614;47.576;7.524;2023-10-09T16:43:35;25.10;72.50
67817;DHT22;54614;47.576;7.524;2023-10-09T16:46:07;25.10;72.50
67817;DHT22;54614;47.576;7.524;2023-10-09T16:48:39;25.20;72.60
67817;DHT22;54614;47.576;7.524;2023-10-09T16:51:06;25.10;72.50
67817;DHT22;54614;47.576;7.524;2023-10-09T16:53:35;25.10;72.50
67817;DHT22;54614;47.576;7.524;2023-10-09T16:56:05;25.10;72.50
67817;DHT22;54614;47.576;7.524;2023-10-09T16:58:38;25.10;72.50
67817;DHT22;54614;47.576;7.524;2023-10-09T17:01:07;25.10;72.60
67817;DHT22;54614;47.576;7.524;2023-10-09T17:03:37;25.10;72.80
67817;DHT22;54614;47.576;7.524;2023-10-09T17:06:20;25.10;72.70
67817;DHT22;54614;47.576;7.524;2023-10-09T17:08:47;25.20;72.70
67817;DHT22;54614;47.576;7.524;2023-10-09T17:11:14;25.10;72.60
67817;DHT22;54614;47.576;7.524;2023-10-09T17:13:40;25.10;72.60
67817;DHT22;54614;47.576;7.524;2023-10-09T17:16:16;25.20;72.80
67817;DHT22;54614;47.576;7.524;2023-10-09T17:18:46;25.10;72.80
67817;DHT22;54614;47.576;7.524;2023-10-09T17:21:17;25.10;72.90
67817;DHT22;54614;47.576;7.524;2023-10-09T17:23:45;25.10;72.80
67817;DHT22;54614;47.576;7.524;2023-10-09T17:26:11;25.20;72.90
67817;DHT22;54614;47.576;7.524;2023-10-09T17:28:40;25.20;73.00
67817;DHT22;54614;47.576;7.524;2023-10-09T17:31:06;25.20;72.90
67817;DHT22;54614;47.576;7.524;2023-10-09T17:33:32;25.10;72.90
67817;DHT22;54614;47.576;7.524;2023-10-09T17:36:06;25.10;72.80
67817;DHT22;54614;47.576;7.524;2023-10-09T17:38:33;25.20;73.00
67817;DHT22;54614;47.576;7.524;2023-10-09T17:41:01;25.20;73.00
67817;DHT22;54614;47.576;7.524;2023-10-09T17:43:27;25.20;72.90
67817;DHT22;54614;47.576;7.524;2023-10-09T17:45:55;25.20;73.20
67817;DHT22;54614;47.576;7.524;2023-10-09T17:48:22;25.20;72.90
67817;DHT22;54614;47.576;7.524;2023-10-09T17:50:50;25.30;73.10
67817;DHT22;54614;47.576;7.524;2023-10-09T17:53:18;25.20;73.00
67817;DHT22;54614;47.576;7.524;2023-10-09T17:55:44;25.10;73.40
67817;DHT22;54614;47.576;7.524;2023-10-09T17:58:12;25.00;73.80
67817;DHT22;54614;47.576;7.524;2023-10-09T18:00:42;25.00;74.10
67817;DHT22;54614;47.576;7.524;2023-10-09T18:03:12;24.90;74.10
67817;DHT22;54614;47.576;7.524;2023-10-09T18:05:42;25.00;73.90
67817;DHT22;54614;47.576;7.524;2023-10-09T18:08:10;25.00;73.70
67817;DHT22;54614;47.576;7.524;2023-10-09T18:10:41;25.00;73.50
67817;DHT22;54614;47.576;7.524;2023-10-09T18:13:09;25.20;73.40
67817;DHT22;54614;47.576;7.524;2023-10-09T18:15:37;25.10;73.20
67817;DHT22;54614;47.576;7.524;2023-10-09T18:18:04;25.10;73.20
67817;DHT22;54614;47.576;7.524;2023-10-09T18:20:40;25.10;73.20
67817;DHT22;54614;47.576;7.524;2023-10-09T18:23:09;25.10;73.10
67817;DHT22;54614;47.576;7.524;2023-10-09T18:25:36;25.10;73.10
67817;DHT22;54614;47.576;7.524;2023-10-09T18:28:03;25.10;73.10
67817;DHT22;54614;47.576;7.524;2023-10-09T18:30:30;25.00;73.10
67817;DHT22;54614;47.576;7.524;2023-10-09T18:32:57;25.10;73.00
67817;DHT22;54614;47.576;7.524;2023-10-09T18:35:25;25.10;72.90
67817;DHT22;54614;47.576;7.524;2023-10-09T18:37:59;25.10;73.00
67817;DHT22;54614;47.576;7.524;2023-10-09T18:40:28;25.10;73.10
67817;DHT22;54614;47.576;7.524;2023-10-09T18:42:59;25.10;72.80
67817;DHT22;54614;47.576;7.524;2023-10-09T18:45:26;25.10;72.80
67817;DHT22;54614;47.576;7.524;2023-10-09T18:47:55;25.10;72.80
67817;DHT22;54614;47.576;7.524;2023-10-09T18:50:22;25.20;72.80
67817;DHT22;54614;47.576;7.524;2023-10-09T18:52:48;25.10;72.70
67817;DHT22;54614;47.576;7.524;2023-10-09T18:55:15;25.10;72.80
67817;DHT22;54614;47.576;7.524;2023-10-09T18:57:44;25.00;73.00
67817;DHT22;54614;47.576;7.524;2023-10-09T19:00:16;25.10;72.90
67817;DHT22;54614;47.576;7.524;2023-10-09T19:02:49;25.00;72.90
67817;DHT22;54614;47.576;7.524;2023-10-09T19:05:19;25.00;72.80
67817;DHT22;54614;47.576;7.524;2023-10-09T19:07:45;25.10;72.80
67817;DHT22;54614;47.576;7.524;2023-10-09T19:10:15;25.10;72.80
67817;DHT22;54614;47.576;7.524;2023-10-09T19:12:41;25.20;72.60
67817;DHT22;54614;47.576;7.524;2023-10-09T19:15:08;25.20;72.50
67817;DHT22;54614;47.576;7.524;2023-10-09T19:17:36;25.20;72.50
67817;DHT22;54614;47.576;7.524;2023-10-09T19:20:03;25.20;72.30
67817;DHT22;54614;47.576;7.524;2023-10-09T19:22:31;25.20;72.30
67817;DHT22;54614;47.576;7.524;2023-10-09T19:24:57;25.20;72.30
67817;DHT22;54614;47.576;7.524;2023-10-09T19:27:24;25.20;72.30
67817;DHT22;54614;47.576;7.524;2023-10-09T19:29:54;25.20;72.20
67817;DHT22;54614;47.576;7.524;2023-10-09T19:32:20;25.20;72.30
67817;DHT22;54614;47.576;7.524;2023-10-09T19:34:47;25.20;72.10
67817;DHT22;54614;47.576;7.524;2023-10-09T19:37:13;25.20;72.10
67817;DHT22;54614;47.576;7.524;2023-10-09T19:39:38;25.20;72.30
67817;DHT22;54614;47.576;7.524;2023-10-09T19:42:06;25.20;72.10
67817;DHT22;54614;47.576;7.524;2023-10-09T19:44:32;25.20;72.20
67817;DHT22;54614;47.576;7.524;2023-10-09T19:46:58;25.20;72.10
67817;DHT22;54614;47.576;7.524;2023-10-09T19:49:24;25.20;72.00
67817;DHT22;54614;47.576;7.524;2023-10-09T19:51:51;25.20;71.90
67817;DHT22;54614;47.576;7.524;2023-10-09T19:54:17;25.20;71.90
67817;DHT22;54614;47.576;7.524;2023-10-09T19:56:47;25.10;72.50
67817;DHT22;54614;47.576;7.524;2023-10-09T19:59:13;25.20;72.00
67817;DHT22;54614;47.576;7.524;2023-10-09T20:01:40;25.20;71.90
67817;DHT22;54614;47.576;7.524;2023-10-09T20:04:06;25.20;71.90
67817;DHT22;54614;47.576;7.524;2023-10-09T20:06:32;25.20;71.90
67817;DHT22;54614;47.576;7.524;2023-10-09T20:08:58;25.10;71.90
67817;DHT22;54614;47.576;7.524;2023-10-09T20:11:24;25.20;72.00
67817;DHT22;54614;47.576;7.524;2023-10-09T20:13:50;25.20;71.90
67817;DHT22;54614;47.576;7.524;2023-10-09T20:16:16;25.20;71.90
67817;DHT22;54614;47.576;7.524;2023-10-09T20:18:42;25.10;71.70
67817;DHT22;54614;47.576;7.524;2023-10-09T20:21:10;25.20;71.70
67817;DHT22;54614;47.576;7.524;2023-10-09T20:23:43;25.20;71.80
67817;DHT22;54614;47.576;7.524;2023-10-09T20:26:10;25.20;71.90
67817;DHT22;54614;47.576;7.524;2023-10-09T20:28:40;25.10;71.90
67817;DHT22;54614;47.576;7.524;2023-10-09T20:31:05;25.10;71.90
67817;DHT22;54614;47.576;7.524;2023-10-09T20:33:32;25.10;72.00
67817;DHT22;54614;47.576;7.524;2023-10-09T20:36:07;25.10;71.80